Rhodanus — PGBC — position and weather

sailwx.info

Track history (hours):
 
Tides and Currents Weather Stations Pressure Air Temp Water Temp Dewpoint Dewpoint Depression Visibility Wind Speed Wind Dir Waves Ship Positions

Rhodanus

Last reported at 2015-Feb-28 10:04 UTC. Time now 2015-Mar-05 04:09 UTC.
Position N 43°23' E 004°53'.

Length 89 m; draft 3.8 m.

Type: Cargo ship. MMSI: 245848000.

Date/timePositionNaut miles runAvg speedWind from/ knotsBaromVisibWave heightAir tempDewpointWater temp
2015-Feb-28 10:04N 43°23' E 004°53'4 7.2
2015-Feb-28 09:33N 43°22' E 004°57'62 8.4
2015-Feb-28 02:13N 43°08' E 003°34'22 5.9
2015-Feb-27 22:28N 42°46' E 003°33'7 5.2
2015-Feb-27 21:13N 42°40' E 003°36'3 4.3
2015-Feb-27 20:28N 42°37' E 003°37'5 3.9
2015-Feb-27 19:13N 42°33' E 003°39'2 3.5
2015-Feb-27 18:33N 42°30' E 003°40'4 3.5
2015-Feb-27 17:29N 42°27' E 003°43'3 2.8
2015-Feb-27 16:30N 42°25' E 003°45'2 2.4
2015-Feb-27 15:32N 42°23' E 003°47'3 2.4
2015-Feb-27 14:15N 42°22' E 003°51'2 2.6
2015-Feb-27 13:33N 42°21' E 003°53'4 3.1
2015-Feb-27 12:23N 42°20' E 003°58'3 3.1
2015-Feb-27 11:30N 42°20' E 004°01'3 2.5
2015-Feb-27 10:28N 42°19' E 004°04'2 2.3
2015-Feb-27 09:33N 42°17' E 004°06'6 5.1
2015-Feb-27 08:26N 42°12' E 004°02'5 5.2
2015-Feb-27 07:28N 42°08' E 003°57'7 5.6
2015-Feb-27 06:15N 42°03' E 003°51'114 8.7
2015-Feb-26 17:10N 40°33' E 002°19'6 9.2
2015-Feb-26 16:33N 40°28' E 002°14'9 9.3
2015-Feb-26 15:33N 40°21' E 002°07'9 9.0
2015-Feb-26 14:33N 40°13' E 001°60'9 8.6
2015-Feb-26 13:33N 40°07' E 001°53'9 8.7
2015-Feb-26 12:33N 39°60' E 001°46'170 8.7
2015-Feb-25 17:08N 37°43' W 000°23'5 8.4
2015-Feb-25 16:33N 37°39' W 000°26'8 8.0
2015-Feb-25 15:33N 37°32' W 000°32'17 8.4
2015-Feb-25 13:28N 37°21' W 000°49'231 8.6
2015-Feb-24 10:33N 35°59' W 005°18'  
Track history (hours):
 
Tides and Currents Weather Stations Pressure Air Temp Water Temp Dewpoint Dewpoint Depression Visibility Wind Speed Wind Dir Waves Ship Positions

Rhodanus

Last reported at 2015-Feb-28 10:04 UTC. Time now 2015-Mar-05 04:09 UTC.
Position N 43°23' E 004°53'.

Length 89 m; draft 3.8 m.

Type: Cargo ship. MMSI: 245848000.

Date/timePositionNaut miles runAvg speedWind from/ knotsBaromVisibWave heightAir tempDewpointWater temp
2015-Feb-28 10:04N 43°23' E 004°53'4 7.2
2015-Feb-28 09:33N 43°22' E 004°57'62 8.4
2015-Feb-28 02:13N 43°08' E 003°34'22 5.9
2015-Feb-27 22:28N 42°46' E 003°33'7 5.2
2015-Feb-27 21:13N 42°40' E 003°36'3 4.3
2015-Feb-27 20:28N 42°37' E 003°37'5 3.9
2015-Feb-27 19:13N 42°33' E 003°39'2 3.5
2015-Feb-27 18:33N 42°30' E 003°40'4 3.5
2015-Feb-27 17:29N 42°27' E 003°43'3 2.8
2015-Feb-27 16:30N 42°25' E 003°45'2 2.4
2015-Feb-27 15:32N 42°23' E 003°47'3 2.4
2015-Feb-27 14:15N 42°22' E 003°51'2 2.6
2015-Feb-27 13:33N 42°21' E 003°53'4 3.1
2015-Feb-27 12:23N 42°20' E 003°58'3 3.1
2015-Feb-27 11:30N 42°20' E 004°01'3 2.5
2015-Feb-27 10:28N 42°19' E 004°04'2 2.3
2015-Feb-27 09:33N 42°17' E 004°06'6 5.1
2015-Feb-27 08:26N 42°12' E 004°02'5 5.2
2015-Feb-27 07:28N 42°08' E 003°57'7 5.6
2015-Feb-27 06:15N 42°03' E 003°51'114 8.7
2015-Feb-26 17:10N 40°33' E 002°19'6 9.2
2015-Feb-26 16:33N 40°28' E 002°14'9 9.3
2015-Feb-26 15:33N 40°21' E 002°07'9 9.0
2015-Feb-26 14:33N 40°13' E 001°60'9 8.6
2015-Feb-26 13:33N 40°07' E 001°53'9 8.7
2015-Feb-26 12:33N 39°60' E 001°46'170 8.7
2015-Feb-25 17:08N 37°43' W 000°23'5 8.4
2015-Feb-25 16:33N 37°39' W 000°26'8 8.0
2015-Feb-25 15:33N 37°32' W 000°32'17 8.4
2015-Feb-25 13:28N 37°21' W 000°49'231 8.6
2015-Feb-24 10:33N 35°59' W 005°18'  

Dump ship's entire track history